Time;durP1;ratioP1;P1;durP2;ratioP2;P2;SDS_P1;SDS_P2;PMS_P1;PMS_P2;Temp;Humidity;BMP_temperature;BMP_pressure;BME280_temperature;BME280_humidity;BME280_pressure;Samples;Min_cycle;Max_cycle;Signal;HPM_P1;HPM_P2
2022/06/10 00:01:29;;;;;;;7.20;5.27;;;;;13.00;101509.00;;;;4850404;29;20250;-69
2022/06/10 00:04:16;;;;;;;5.67;4.70;;;;;12.90;101502.00;;;;4849434;29;20247;-69
2022/06/10 00:07:02;;;;;;;5.93;4.60;;;;;12.90;101494.00;;;;4853249;29;20231;-69
2022/06/10 00:09:49;;;;;;;6.10;4.80;;;;;12.90;101505.00;;;;4852017;29;20392;-69
2022/06/10 00:12:39;;;;;;;6.53;4.70;;;;;12.80;101502.00;;;;4852990;29;20684;-70
2022/06/10 00:15:25;;;;;;;8.27;5.17;;;;;12.80;101511.00;;;;4848860;29;20876;-70
2022/06/10 00:18:12;;;;;;;5.10;4.60;;;;;12.70;101508.00;;;;4849360;29;20296;-70
2022/06/10 00:21:00;;;;;;;7.20;5.03;;;;;12.70;101512.00;;;;4852995;29;20767;-69
2022/06/10 00:23:47;;;;;;;6.80;4.70;;;;;12.60;101504.00;;;;4852186;29;20381;-69
2022/06/10 00:26:34;;;;;;;6.30;4.70;;;;;12.60;101512.00;;;;4849580;29;20700;-69
2022/06/10 00:29:22;;;;;;;5.70;4.90;;;;;12.60;101507.00;;;;4846043;29;20235;-69
2022/06/10 00:32:09;;;;;;;10.03;4.90;;;;;12.50;101511.00;;;;4851727;29;20322;-69
2022/06/10 00:34:55;;;;;;;6.80;4.97;;;;;12.40;101502.00;;;;4852565;29;20254;-69
2022/06/10 00:37:42;;;;;;;6.23;4.80;;;;;12.40;101500.00;;;;4850347;29;20281;-69
2022/06/10 00:40:32;;;;;;;8.20;5.10;;;;;12.40;101503.00;;;;4852419;29;20316;-70
2022/06/10 00:43:22;;;;;;;8.80;5.47;;;;;12.40;101497.00;;;;4849169;29;20827;-69
2022/06/10 00:46:23;;;;;;;8.63;5.30;;;;;12.30;101491.00;;;;4853124;29;20773;-70
2022/06/10 00:49:15;;;;;;;7.77;4.77;;;;;12.30;101483.00;;;;4848080;29;20758;-69
2022/06/10 00:52:02;;;;;;;7.87;5.10;;;;;12.20;101494.00;;;;4852531;29;20284;-70
2022/06/10 00:54:50;;;;;;;6.50;5.00;;;;;12.20;101489.00;;;;4850858;29;20629;-69
2022/06/10 00:57:41;;;;;;;6.23;4.73;;;;;12.20;101487.00;;;;4848470;29;20597;-69
2022/06/10 01:00:29;;;;;;;7.40;5.10;;;;;12.10;101495.00;;;;4846225;29;20685;-69
2022/06/10 01:03:16;;;;;;;6.07;5.10;;;;;12.10;101494.00;;;;4851437;29;20256;-69
2022/06/10 01:06:02;;;;;;;5.57;4.33;;;;;12.10;101495.00;;;;4851358;29;20230;-69
2022/06/10 01:08:51;;;;;;;8.53;4.43;;;;;12.00;101496.00;;;;4851281;29;20234;-67
2022/06/10 01:12:01;;;;;;;7.03;4.47;;;;;12.00;101493.00;;;;4851197;29;20249;-69
2022/06/10 01:15:03;;;;;;;7.60;4.50;;;;;12.00;101499.00;;;;4848706;29;20271;-69
2022/06/10 01:18:09;;;;;;;5.57;4.60;;;;;12.00;101488.00;;;;4850172;29;20253;-69
2022/06/10 01:21:08;;;;;;;6.23;4.77;;;;;11.90;101473.00;;;;4850427;29;20243;-69
2022/06/10 01:24:31;;;;;;;6.00;4.77;;;;;11.90;101480.00;;;;4852080;29;20307;-68
2022/06/10 01:27:51;;;;;;;10.30;4.70;;;;;11.80;101482.00;;;;4846396;29;20646;-68
2022/06/10 01:31:15;;;;;;;6.87;4.50;;;;;11.80;101480.00;;;;4851171;29;20264;-68
2022/06/10 01:34:18;;;;;;;8.50;4.47;;;;;11.90;101479.00;;;;4851227;29;20235;-68
2022/06/10 01:37:09;;;;;;;5.00;4.17;;;;;11.90;101480.00;;;;4851584;29;20314;-69
2022/06/10 01:40:05;;;;;;;6.53;4.47;;;;;11.80;101483.00;;;;4852080;29;20235;-67
2022/06/10 01:42:57;;;;;;;6.70;4.70;;;;;11.80;101480.00;;;;4851070;29;20248;-69
2022/06/10 01:45:49;;;;;;;6.47;4.73;;;;;11.80;101484.00;;;;4849050;29;20264;-69
2022/06/10 01:48:44;;;;;;;6.43;4.17;;;;;11.80;101474.00;;;;4852833;29;20293;-69
2022/06/10 01:51:38;;;;;;;7.03;4.57;;;;;11.80;101479.00;;;;4847892;29;20246;-68
2022/06/10 01:54:32;;;;;;;6.37;4.80;;;;;11.70;101475.00;;;;4850532;29;20238;-68
2022/06/10 01:57:26;;;;;;;7.67;4.70;;;;;11.70;101483.00;;;;4852997;29;20230;-68
2022/06/10 02:00:16;;;;;;;6.87;4.60;;;;;11.70;101482.00;;;;4848184;29;20823;-67
2022/06/10 02:03:08;;;;;;;9.83;5.10;;;;;11.80;101484.00;;;;4851367;29;20246;-69
2022/06/10 02:06:02;;;;;;;8.97;4.73;;;;;11.70;101491.00;;;;4850933;29;20247;-68
2022/06/10 02:08:52;;;;;;;6.73;4.97;;;;;11.70;101492.00;;;;4855006;29;20393;-68
2022/06/10 02:11:43;;;;;;;6.37;4.63;;;;;11.80;101494.00;;;;4851719;29;20309;-69
2022/06/10 02:14:54;;;;;;;6.30;4.80;;;;;11.70;101498.00;;;;4848767;29;20723;-68
2022/06/10 02:17:45;;;;;;;7.80;4.87;;;;;11.70;101492.00;;;;4849263;29;20684;-69
2022/06/10 02:20:33;;;;;;;6.87;4.90;;;;;11.70;101493.00;;;;4847673;29;20274;-68
2022/06/10 02:23:25;;;;;;;7.43;4.77;;;;;11.70;101487.00;;;;4850092;29;20849;-69
2022/06/10 02:26:11;;;;;;;7.13;5.23;;;;;11.70;101491.00;;;;4852061;29;20257;-68
2022/06/10 02:29:02;;;;;;;5.53;4.13;;;;;11.70;101494.00;;;;4854318;29;20239;-68
2022/06/10 02:31:53;;;;;;;6.40;4.80;;;;;11.70;101496.00;;;;4854407;29;20302;-69
2022/06/10 02:34:39;;;;;;;6.53;4.60;;;;;11.70;101489.00;;;;4855394;29;20239;-68
2022/06/10 02:37:34;;;;;;;5.57;4.63;;;;;11.70;101486.00;;;;4854635;29;20264;-69
2022/06/10 02:40:29;;;;;;;6.90;5.00;;;;;11.60;101492.00;;;;4846983;29;20247;-68
2022/06/10 02:43:20;;;;;;;7.10;4.93;;;;;11.60;101494.00;;;;4852679;29;20239;-69
2022/06/10 02:46:12;;;;;;;6.83;4.60;;;;;11.70;101491.00;;;;4854394;29;20331;-68
2022/06/10 02:49:05;;;;;;;5.77;4.73;;;;;11.70;101498.00;;;;4853814;29;20678;-69
2022/06/10 02:51:51;;;;;;;7.07;4.77;;;;;11.80;101502.00;;;;4852140;29;20250;-68
2022/06/10 02:54:40;;;;;;;10.53;5.30;;;;;11.90;101506.00;;;;4851904;29;20294;-69
2022/06/10 03:04:06;;;;;;;7.67;5.53;;;;;12.00;101517.00;;;;4850941;29;20236;-69
2022/06/10 03:07:19;;;;;;;7.77;4.87;;;;;12.00;101509.00;;;;4853794;29;20288;-68
2022/06/10 03:10:18;;;;;;;7.00;5.03;;;;;12.00;101517.00;;;;4854926;29;20247;-70
2022/06/10 03:13:35;;;;;;;8.50;5.57;;;;;12.00;101513.00;;;;4854384;29;21166;-70
2022/06/10 03:16:37;;;;;;;6.50;5.00;;;;;12.00;101517.00;;;;4853065;29;20247;-70
2022/06/10 03:19:35;;;;;;;9.07;5.60;;;;;12.00;101518.00;;;;4850152;29;20232;-69
2022/06/10 03:22:34;;;;;;;7.93;5.90;;;;;11.90;101520.00;;;;4850262;29;20294;-70
2022/06/10 03:25:25;;;;;;;7.27;5.07;;;;;11.90;101520.00;;;;4848802;29;20347;-69
2022/06/10 03:28:15;;;;;;;8.63;5.63;;;;;11.90;101517.00;;;;4849095;29;20239;-68
2022/06/10 03:31:09;;;;;;;8.47;5.77;;;;;12.00;101526.00;;;;4854331;29;20257;-69
2022/06/10 03:34:02;;;;;;;7.90;5.60;;;;;12.00;101522.00;;;;4838926;29;20243;-69
2022/06/10 03:36:50;;;;;;;7.73;5.50;;;;;12.00;101521.00;;;;4851403;29;21025;-69
2022/06/10 03:39:36;;;;;;;6.97;5.27;;;;;12.00;101520.00;;;;4853465;29;20310;-68
2022/06/10 03:42:25;;;;;;;8.00;5.53;;;;;12.00;101524.00;;;;4847593;29;20234;-69
2022/06/10 03:45:15;;;;;;;7.33;5.47;;;;;12.00;101524.00;;;;4856535;29;20235;-69
2022/06/10 03:48:03;;;;;;;8.33;5.57;;;;;12.00;101523.00;;;;4854611;29;20240;-69
2022/06/10 03:50:51;;;;;;;7.17;5.47;;;;;12.00;101529.00;;;;4851946;29;20642;-70
2022/06/10 03:53:39;;;;;;;8.80;5.80;;;;;12.10;101527.00;;;;4853769;29;20938;-68
2022/06/10 03:56:27;;;;;;;8.63;4.97;;;;;12.10;101528.00;;;;4854045;29;20235;-68
2022/06/10 03:59:14;;;;;;;9.73;6.10;;;;;12.20;101543.00;;;;4852424;29;20295;-69
2022/06/10 04:02:00;;;;;;;10.17;6.13;;;;;12.20;101542.00;;;;4853060;29;20251;-70
2022/06/10 04:04:48;;;;;;;10.10;6.33;;;;;12.20;101549.00;;;;4851128;29;20295;-68
2022/06/10 04:07:34;;;;;;;7.20;5.40;;;;;12.30;101549.00;;;;4850140;29;20235;-69
2022/06/10 04:10:24;;;;;;;8.20;5.73;;;;;12.30;101548.00;;;;4848797;29;20368;-70
2022/06/10 04:13:11;;;;;;;8.40;5.83;;;;;12.30;101549.00;;;;4852895;29;20233;-69
2022/06/10 04:15:57;;;;;;;7.90;5.63;;;;;12.30;101549.00;;;;4853587;29;20240;-70
2022/06/10 04:18:43;;;;;;;9.43;5.93;;;;;12.30;101554.00;;;;4853171;29;20720;-70
2022/06/10 04:21:31;;;;;;;12.87;6.30;;;;;12.30;101552.00;;;;4853004;29;20235;-70
2022/06/10 04:24:17;;;;;;;8.17;6.07;;;;;12.40;101556.00;;;;4851707;29;20240;-70
2022/06/10 04:27:04;;;;;;;7.53;5.70;;;;;12.40;101556.00;;;;4852769;29;20227;-70
2022/06/10 04:29:51;;;;;;;11.60;5.90;;;;;12.40;101553.00;;;;4850184;29;20280;-69
2022/06/10 04:32:37;;;;;;;9.03;5.90;;;;;12.60;101568.00;;;;4851250;29;20239;-70
2022/06/10 04:35:24;;;;;;;8.03;5.47;;;;;12.60;101569.00;;;;4852251;29;20724;-69
2022/06/10 04:38:14;;;;;;;10.13;6.50;;;;;12.60;101566.00;;;;4853090;29;20248;-71
2022/06/10 04:41:00;;;;;;;11.10;5.93;;;;;12.60;101562.00;;;;4850587;29;20633;-69
2022/06/10 04:43:47;;;;;;;10.10;6.00;;;;;12.70;101574.00;;;;4852026;29;20251;-70
2022/06/10 04:46:37;;;;;;;9.97;6.50;;;;;12.80;101568.00;;;;4851131;29;20239;-69
2022/06/10 04:49:23;;;;;;;8.73;6.10;;;;;12.80;101568.00;;;;4853028;29;20234;-69
2022/06/10 04:52:09;;;;;;;9.00;6.43;;;;;12.90;101574.00;;;;4852705;29;20368;-69
2022/06/10 04:54:57;;;;;;;10.07;6.37;;;;;13.00;101571.00;;;;4852264;29;20716;-69
2022/06/10 04:57:43;;;;;;;10.70;6.63;;;;;13.10;101569.00;;;;4847365;29;20316;-68
2022/06/10 05:00:32;;;;;;;10.53;6.43;;;;;13.20;101570.00;;;;4844520;29;20740;-69
2022/06/10 05:03:19;;;;;;;14.80;7.83;;;;;13.40;101579.00;;;;4849364;29;20602;-70
2022/06/10 05:06:06;;;;;;;10.50;7.00;;;;;13.50;101577.00;;;;4851188;29;20239;-69
2022/06/10 05:08:52;;;;;;;14.33;7.07;;;;;13.70;101573.00;;;;4849739;29;20315;-69
2022/06/10 05:11:40;;;;;;;15.73;8.17;;;;;13.90;101570.00;;;;4848599;29;20235;-69
2022/06/10 05:14:27;;;;;;;15.97;7.73;;;;;14.10;101568.00;;;;4848656;29;20235;-70
2022/06/10 05:17:13;;;;;;;16.20;7.87;;;;;14.20;101572.00;;;;4852415;29;20603;-70
2022/06/10 05:19:59;;;;;;;11.60;7.87;;;;;14.30;101566.00;;;;4851713;29;20608;-70
2022/06/10 05:22:45;;;;;;;11.37;8.00;;;;;14.40;101579.00;;;;4851515;29;20235;-71
2022/06/10 05:25:33;;;;;;;10.80;7.07;;;;;14.50;101572.00;;;;4847390;29;20253;-70
2022/06/10 05:28:21;;;;;;;11.00;7.20;;;;;14.60;101572.00;;;;4849698;29;20248;-69
2022/06/10 05:31:08;;;;;;;10.73;7.23;;;;;14.80;101579.00;;;;4848539;29;20276;-68
2022/06/10 05:36:58;;;;;;;12.50;7.63;;;;;15.00;101585.00;;;;4851297;29;20301;-69
2022/06/10 05:39:45;;;;;;;18.63;6.77;;;;;15.00;101581.00;;;;4850042;29;20234;-69
2022/06/10 05:42:32;;;;;;;14.80;7.20;;;;;15.10;101586.00;;;;4844004;29;20243;-68
2022/06/10 05:45:20;;;;;;;12.13;7.23;;;;;15.20;101570.00;;;;4849557;29;20243;-68
2022/06/10 05:48:07;;;;;;;9.10;6.60;;;;;15.10;101583.00;;;;4850707;29;20736;-68
2022/06/10 05:50:56;;;;;;;11.10;6.77;;;;;15.20;101580.00;;;;4848732;29;20447;-68
2022/06/10 05:53:42;;;;;;;9.63;6.27;;;;;15.20;101577.00;;;;4851520;29;20863;-69
2022/06/10 05:56:28;;;;;;;8.60;6.30;;;;;15.30;101584.00;;;;4845320;29;20360;-68
2022/06/10 05:59:15;;;;;;;10.67;6.33;;;;;15.30;101590.00;;;;4853297;29;20961;-68
2022/06/10 06:02:04;;;;;;;13.00;5.97;;;;;15.40;101587.00;;;;4856416;29;20243;-68
2022/06/10 06:04:51;;;;;;;9.63;5.93;;;;;15.50;101592.00;;;;4851644;29;20292;-68
2022/06/10 06:07:39;;;;;;;11.60;6.47;;;;;15.60;101593.00;;;;4853471;29;20235;-70
2022/06/10 06:10:28;;;;;;;13.37;6.60;;;;;15.70;101596.00;;;;4856189;29;20240;-68
2022/06/10 06:13:14;;;;;;;9.97;5.57;;;;;15.70;101598.00;;;;4855211;29;20235;-69
2022/06/10 06:16:00;;;;;;;11.53;5.73;;;;;15.80;101591.00;;;;4854885;29;20857;-70
2022/06/10 06:18:50;;;;;;;9.63;6.03;;;;;15.80;101599.00;;;;4855391;29;20339;-70
2022/06/10 06:21:36;;;;;;;7.43;5.70;;;;;15.90;101600.00;;;;4850821;29;20247;-70
2022/06/10 06:24:23;;;;;;;10.47;6.23;;;;;16.10;101601.00;;;;4854399;29;20292;-69
2022/06/10 06:27:13;;;;;;;12.17;5.07;;;;;16.00;101615.00;;;;4855416;29;20590;-67
2022/06/10 06:30:01;;;;;;;10.40;5.40;;;;;16.10;101609.00;;;;4854908;29;20232;-69
2022/06/10 06:32:48;;;;;;;9.63;4.63;;;;;16.20;101616.00;;;;4856046;29;20277;-68
2022/06/10 06:35:37;;;;;;;8.23;4.83;;;;;16.30;101612.00;;;;4849450;29;20825;-68
2022/06/10 06:38:24;;;;;;;12.10;5.07;;;;;16.40;101626.00;;;;4850112;29;20248;-68
2022/06/10 06:41:11;;;;;;;7.30;4.73;;;;;16.40;101622.00;;;;4854815;29;20808;-68
2022/06/10 06:43:57;;;;;;;9.53;4.93;;;;;16.50;101626.00;;;;4853418;29;20238;-68
2022/06/10 06:46:44;;;;;;;8.83;4.67;;;;;16.60;101628.00;;;;4855546;29;20240;-69
2022/06/10 06:49:31;;;;;;;9.37;4.53;;;;;16.70;101621.00;;;;4848871;29;20316;-68
2022/06/10 06:52:19;;;;;;;10.00;4.77;;;;;16.80;101627.00;;;;4853904;29;20269;-68
2022/06/10 06:55:06;;;;;;;7.93;4.40;;;;;16.80;101630.00;;;;4855834;29;20347;-69
2022/06/10 06:57:52;;;;;;;9.90;4.33;;;;;16.80;101636.00;;;;4853308;29;20906;-68
2022/06/10 07:00:39;;;;;;;8.53;4.00;;;;;16.90;101645.00;;;;4850909;29;20334;-69
2022/06/10 07:03:26;;;;;;;9.90;3.83;;;;;16.90;101645.00;;;;4851880;29;20637;-68
2022/06/10 07:06:12;;;;;;;9.03;3.87;;;;;16.80;101646.00;;;;4853586;29;20660;-68
2022/06/10 07:09:00;;;;;;;10.20;4.23;;;;;16.80;101640.00;;;;4851840;29;20245;-67
2022/06/10 07:11:46;;;;;;;8.07;4.10;;;;;16.80;101651.00;;;;4854255;29;20920;-68
2022/06/10 07:14:33;;;;;;;5.47;3.60;;;;;16.90;101655.00;;;;4854716;29;20315;-68
2022/06/10 07:17:20;;;;;;;6.60;4.00;;;;;16.80;101655.00;;;;4853626;29;20235;-68
2022/06/10 07:20:08;;;;;;;8.33;4.60;;;;;17.00;101659.00;;;;4851889;29;20322;-68
2022/06/10 07:22:55;;;;;;;5.27;3.73;;;;;16.90;101662.00;;;;4854425;29;20251;-67
2022/06/10 07:25:43;;;;;;;10.57;4.57;;;;;17.00;101662.00;;;;4854188;29;20246;-69
2022/06/10 07:28:29;;;;;;;12.53;4.10;;;;;17.00;101653.00;;;;4852938;29;20235;-68
2022/06/10 07:31:15;;;;;;;8.37;4.00;;;;;17.00;101658.00;;;;4854981;29;20254;-69
2022/06/10 07:34:02;;;;;;;10.60;4.23;;;;;17.10;101661.00;;;;4852129;29;20233;-68
2022/06/10 07:36:48;;;;;;;9.90;3.90;;;;;17.10;101665.00;;;;4853563;29;20245;-67
2022/06/10 07:39:35;;;;;;;8.57;4.33;;;;;17.20;101667.00;;;;4853899;29;20245;-70
2022/06/10 07:42:22;;;;;;;6.07;4.43;;;;;17.20;101667.00;;;;4853512;29;20234;-69
2022/06/10 07:45:09;;;;;;;8.53;3.90;;;;;17.30;101666.00;;;;4850059;29;20235;-69
2022/06/10 07:47:56;;;;;;;11.53;3.77;;;;;17.40;101665.00;;;;4849935;29;20250;-69
2022/06/10 07:50:45;;;;;;;5.60;3.30;;;;;17.50;101666.00;;;;4849962;29;20619;-69
2022/06/10 07:53:31;;;;;;;8.40;3.87;;;;;17.40;101661.00;;;;4850207;29;20352;-69
2022/06/10 07:56:20;;;;;;;10.00;3.53;;;;;17.60;101664.00;;;;4852282;29;20355;-70
2022/06/10 07:59:09;;;;;;;12.07;3.80;;;;;17.80;101666.00;;;;4850897;29;20234;-68
2022/06/10 08:01:56;;;;;;;5.53;4.03;;;;;18.10;101661.00;;;;4854126;29;20389;-69
2022/06/10 08:04:42;;;;;;;8.43;4.10;;;;;18.20;101663.00;;;;4852634;29;20263;-69
2022/06/10 08:07:29;;;;;;;5.17;3.23;;;;;18.30;101659.00;;;;4853130;29;20239;-69
2022/06/10 08:10:23;;;;;;;11.13;3.20;;;;;18.40;101669.00;;;;4849249;29;20241;-69
2022/06/10 08:13:09;;;;;;;4.70;3.37;;;;;18.40;101663.00;;;;4853953;29;20733;-69
2022/06/10 08:15:58;;;;;;;7.43;3.00;;;;;18.30;101664.00;;;;4854047;29;20749;-69
2022/06/10 08:18:44;;;;;;;7.83;3.13;;;;;18.30;101668.00;;;;4848512;29;20264;-69
2022/06/10 08:24:44;;;;;;;6.50;2.77;;;;;18.50;101667.00;;;;4850990;29;20323;-69
2022/06/10 08:27:30;;;;;;;8.67;3.60;;;;;18.60;101658.00;;;;4849833;29;20319;-67
2022/06/10 08:30:17;;;;;;;5.50;2.77;;;;;18.70;101660.00;;;;4852758;29;20704;-69
2022/06/10 08:33:05;;;;;;;4.87;3.00;;;;;18.70;101667.00;;;;4851484;29;20231;-68
2022/06/10 08:35:52;;;;;;;7.93;3.13;;;;;18.90;101670.00;;;;4848152;29;20372;-68
2022/06/10 08:38:38;;;;;;;4.03;2.80;;;;;19.00;101671.00;;;;4853485;29;20620;-69
2022/06/10 08:41:43;;;;;;;4.87;2.83;;;;;19.10;101674.00;;;;4852774;29;20255;-69
2022/06/10 08:44:36;;;;;;;5.03;2.73;;;;;19.30;101670.00;;;;4847775;29;20232;-69
2022/06/10 08:47:54;;;;;;;6.70;2.57;;;;;19.50;101671.00;;;;4852830;29;20239;-68
2022/06/10 08:51:01;;;;;;;6.20;2.20;;;;;19.30;101663.00;;;;4845515;29;20260;-69
2022/06/10 08:54:13;;;;;;;4.13;2.07;;;;;19.50;101669.00;;;;4853028;29;20312;-69
2022/06/10 08:57:06;;;;;;;7.00;2.50;;;;;19.60;101666.00;;;;4849251;29;20246;-69
2022/06/10 08:59:56;;;;;;;7.87;2.60;;;;;19.80;101657.00;;;;4848991;29;20240;-69
2022/06/10 09:02:49;;;;;;;4.07;2.07;;;;;20.00;101672.00;;;;4848507;29;20887;-69
2022/06/10 09:05:38;;;;;;;4.80;2.40;;;;;20.20;101663.00;;;;4848395;29;20304;-69
2022/06/10 09:08:32;;;;;;;7.13;2.63;;;;;20.10;101670.00;;;;4853103;29;20249;-69
2022/06/10 09:11:23;;;;;;;5.47;2.57;;;;;20.20;101666.00;;;;4852252;29;20239;-69
2022/06/10 09:14:17;;;;;;;5.17;2.20;;;;;20.20;101671.00;;;;4849131;29;20231;-69
2022/06/10 09:17:07;;;;;;;3.30;2.10;;;;;20.20;101670.00;;;;4849644;29;20601;-69
2022/06/10 09:20:02;;;;;;;4.60;2.03;;;;;20.20;101661.00;;;;4851453;29;20236;-69
2022/06/10 09:22:55;;;;;;;3.60;1.90;;;;;20.50;101670.00;;;;4851915;29;20261;-69
2022/06/10 09:25:45;;;;;;;3.50;1.80;;;;;20.70;101668.00;;;;4850654;29;20255;-69
2022/06/10 09:28:31;;;;;;;5.40;1.60;;;;;20.50;101673.00;;;;4850563;29;20349;-69
2022/06/10 09:31:29;;;;;;;7.37;1.80;;;;;20.60;101670.00;;;;4852705;29;20248;-68
2022/06/10 09:34:29;;;;;;;2.13;1.67;;;;;20.90;101674.00;;;;4842427;29;20240;-68
2022/06/10 09:37:25;;;;;;;2.53;1.53;;;;;21.10;101677.00;;;;4851880;29;20340;-69
2022/06/10 09:43:56;;;;;;;5.13;1.57;;;;;21.10;101682.00;;;;4848502;29;20236;-69
2022/06/10 09:47:17;;;;;;;6.47;1.60;;;;;20.70;101681.00;;;;4846355;29;20239;-69
2022/06/10 09:50:14;;;;;;;4.33;2.10;;;;;20.50;101681.00;;;;4809172;29;20382;-68
2022/06/10 09:53:26;;;;;;;3.47;1.93;;;;;20.50;101668.00;;;;4848898;29;20243;-69
2022/06/10 09:56:38;;;;;;;1.73;1.50;;;;;20.40;101660.00;;;;4850002;29;20729;-68
2022/06/10 09:59:35;;;;;;;2.03;1.70;;;;;20.20;101663.00;;;;4850277;29;20761;-69
2022/06/10 10:02:37;;;;;;;3.97;1.63;;;;;20.40;101659.00;;;;4850582;29;20732;-69
2022/06/10 10:05:34;;;;;;;2.13;1.23;;;;;20.50;101665.00;;;;4851626;29;20235;-69
2022/06/10 10:08:30;;;;;;;5.80;1.67;;;;;20.80;101656.00;;;;4853115;29;20288;-69
2022/06/10 10:11:26;;;;;;;10.80;1.80;;;;;20.70;101658.00;;;;4851170;29;20235;-69
2022/06/10 10:14:21;;;;;;;3.97;1.90;;;;;20.70;101662.00;;;;4851674;29;20277;-69
2022/06/10 10:17:28;;;;;;;3.87;1.63;;;;;21.10;101658.00;;;;4851793;29;20239;-69
2022/06/10 10:20:24;;;;;;;3.53;2.30;;;;;21.20;101661.00;;;;4849745;29;20311;-68
2022/06/10 10:23:14;;;;;;;2.47;1.70;;;;;21.30;101656.00;;;;4851609;29;20239;-69
2022/06/10 10:26:01;;;;;;;5.47;2.20;;;;;21.40;101663.00;;;;4851330;29;20239;-69
2022/06/10 10:28:50;;;;;;;4.33;2.10;;;;;21.50;101651.00;;;;4851354;29;20384;-69
2022/06/10 10:31:41;;;;;;;4.70;2.23;;;;;21.90;101652.00;;;;4850645;29;20250;-69
2022/06/10 10:34:36;;;;;;;6.87;2.53;;;;;22.00;101639.00;;;;4851386;29;20235;-69
2022/06/10 10:37:25;;;;;;;4.67;2.10;;;;;22.20;101642.00;;;;4851830;29;20289;-69
2022/06/10 10:40:21;;;;;;;10.20;5.03;;;;;22.50;101653.00;;;;4849290;29;20231;-69
2022/06/10 10:43:19;;;;;;;7.13;1.87;;;;;22.80;101654.00;;;;4849848;29;20375;-69
2022/06/10 10:46:26;;;;;;;5.40;1.90;;;;;22.70;101646.00;;;;4851014;29;20261;-69
2022/06/10 10:49:24;;;;;;;5.93;1.63;;;;;22.60;101645.00;;;;4852478;29;20247;-69
2022/06/10 10:52:18;;;;;;;6.33;1.60;;;;;22.70;101656.00;;;;4854824;29;20253;-69
2022/06/10 10:55:20;;;;;;;4.70;1.60;;;;;23.10;101646.00;;;;4855023;29;20302;-69
2022/06/10 10:58:17;;;;;;;1.60;1.20;;;;;22.90;101651.00;;;;4852673;29;20243;-69
2022/06/10 11:01:07;;;;;;;2.10;1.00;;;;;23.30;101655.00;;;;4854592;29;20241;-69
2022/06/10 11:03:54;;;;;;;2.07;1.20;;;;;23.30;101647.00;;;;4854077;29;20237;-69
2022/06/10 11:06:40;;;;;;;3.33;1.30;;;;;23.30;101649.00;;;;4855847;29;20286;-69
2022/06/10 11:09:28;;;;;;;3.20;1.27;;;;;23.20;101653.00;;;;4855001;29;20246;-68
2022/06/10 11:12:19;;;;;;;3.70;1.50;;;;;23.00;101660.00;;;;4854537;29;20238;-67
2022/06/10 11:15:16;;;;;;;2.20;1.17;;;;;23.10;101646.00;;;;4851718;29;20747;-69
2022/06/10 11:18:03;;;;;;;2.20;1.20;;;;;23.50;101651.00;;;;4854246;29;20368;-69
2022/06/10 11:20:50;;;;;;;2.47;1.10;;;;;23.50;101646.00;;;;4848941;29;20888;-69
2022/06/10 11:23:36;;;;;;;0.93;0.87;;;;;23.70;101656.00;;;;4854849;29;20341;-68
2022/06/10 11:26:25;;;;;;;1.50;1.00;;;;;23.70;101646.00;;;;4853400;29;20238;-71
2022/06/10 11:29:13;;;;;;;1.63;1.00;;;;;23.30;101646.00;;;;4853342;29;20251;-71
2022/06/10 11:32:03;;;;;;;2.37;1.00;;;;;23.10;101645.00;;;;4853401;29;20603;-70
2022/06/10 11:34:58;;;;;;;3.43;1.13;;;;;23.40;101645.00;;;;4850449;29;20259;-71
2022/06/10 11:37:48;;;;;;;2.33;1.13;;;;;23.80;101634.00;;;;4850629;29;20367;-71
2022/06/10 11:40:42;;;;;;;3.03;1.20;;;;;24.20;101629.00;;;;4851665;29;20243;-69
2022/06/10 11:43:32;;;;;;;5.23;1.33;;;;;24.10;101635.00;;;;4851516;29;20621;-69
2022/06/10 11:46:26;;;;;;;2.00;1.20;;;;;23.70;101632.00;;;;4851731;29;20265;-71
2022/06/10 11:49:20;;;;;;;2.70;1.20;;;;;23.50;101640.00;;;;4850701;29;20247;-70
2022/06/10 11:52:14;;;;;;;3.40;1.40;;;;;23.70;101624.00;;;;4852097;29;20766;-70
2022/06/10 11:55:06;;;;;;;3.33;1.10;;;;;24.00;101625.00;;;;4850480;29;20231;-70
2022/06/10 12:01:08;;;;;;;2.20;1.40;;;;;23.80;101618.00;;;;4852176;29;20291;-68
2022/06/10 12:04:00;;;;;;;2.53;1.50;;;;;23.80;101619.00;;;;4852063;29;20235;-69
2022/06/10 12:06:50;;;;;;;2.20;1.23;;;;;23.90;101620.00;;;;4849501;29;20765;-68
2022/06/10 12:09:41;;;;;;;3.47;1.53;;;;;23.90;101620.00;;;;4853678;29;20240;-68
2022/06/10 12:12:30;;;;;;;5.47;2.80;;;;;24.00;101614.00;;;;4852609;29;20251;-68
2022/06/10 12:15:22;;;;;;;3.70;1.83;;;;;23.90;101607.00;;;;4851807;29;20252;-68
2022/06/10 12:18:12;;;;;;;2.97;1.30;;;;;23.90;101599.00;;;;4850496;29;20252;-68
2022/06/10 12:21:02;;;;;;;2.93;1.50;;;;;24.20;101599.00;;;;4850986;29;20238;-69
2022/06/10 12:23:50;;;;;;;2.50;1.50;;;;;24.00;101602.00;;;;4851349;29;20300;-68
2022/06/10 12:26:46;;;;;;;4.87;1.30;;;;;24.10;101595.00;;;;4846406;29;20656;-68
2022/06/10 12:29:41;;;;;;;1.47;1.30;;;;;24.50;101613.00;;;;4851929;29;20763;-68
2022/06/10 12:32:31;;;;;;;4.80;1.47;;;;;25.20;101601.00;;;;4853068;29;20239;-68
2022/06/10 12:35:23;;;;;;;2.40;1.50;;;;;25.00;101592.00;;;;4851936;29;20304;-68
2022/06/10 12:38:18;;;;;;;4.47;1.70;;;;;25.00;101581.00;;;;4853668;29;20281;-68
2022/06/10 12:41:08;;;;;;;2.50;1.50;;;;;24.90;101591.00;;;;4850200;29;20239;-68
2022/06/10 12:44:00;;;;;;;3.97;2.07;;;;;24.90;101593.00;;;;4849620;29;20316;-68
2022/06/10 12:46:52;;;;;;;4.13;2.00;;;;;25.10;101596.00;;;;4846321;29;20243;-68
2022/06/10 12:49:41;;;;;;;3.77;1.70;;;;;25.30;101592.00;;;;4846818;29;20388;-69
2022/06/10 12:52:39;;;;;;;3.27;1.77;;;;;25.50;101590.00;;;;4851712;29;20748;-70
2022/06/10 12:55:31;;;;;;;3.03;1.83;;;;;25.90;101596.00;;;;4852326;29;20248;-70
2022/06/10 12:58:43;;;;;;;6.07;2.27;;;;;26.10;101604.00;;;;4850893;29;20239;-69
2022/06/10 13:01:42;;;;;;;3.47;1.97;;;;;26.10;101594.00;;;;4852470;29;20725;-68
2022/06/10 13:05:00;;;;;;;3.00;1.80;;;;;25.90;101590.00;;;;4852472;29;20239;-69
2022/06/10 13:07:49;;;;;;;6.30;2.33;;;;;26.10;101590.00;;;;4850938;29;20235;-70
2022/06/10 13:10:44;;;;;;;3.57;1.83;;;;;26.10;101591.00;;;;4846558;29;20247;-70
2022/06/10 13:13:31;;;;;;;4.10;2.00;;;;;26.30;101585.00;;;;4852221;29;20288;-70
2022/06/10 13:16:40;;;;;;;2.83;2.10;;;;;25.70;101583.00;;;;4851417;29;20276;-69
2022/06/10 13:19:34;;;;;;;4.33;2.07;;;;;25.40;101586.00;;;;4850445;29;20254;-69
2022/06/10 13:22:32;;;;;;;20.00;3.80;;;;;25.40;101593.00;;;;4852027;29;20235;-69
2022/06/10 13:25:27;;;;;;;8.20;2.80;;;;;25.50;101591.00;;;;4851387;29;20243;-70
2022/06/10 13:28:16;;;;;;;4.70;2.47;;;;;25.20;101576.00;;;;4850224;29;20247;-70
2022/06/10 13:31:06;;;;;;;5.53;2.50;;;;;25.00;101581.00;;;;4853055;29;20250;-69
2022/06/10 13:33:55;;;;;;;6.17;2.70;;;;;24.80;101588.00;;;;4847010;29;20274;-69
2022/06/10 13:36:49;;;;;;;3.87;2.23;;;;;24.70;101583.00;;;;4848460;29;20241;-69
2022/06/10 13:39:38;;;;;;;4.50;2.30;;;;;24.70;101587.00;;;;4851499;29;20243;-70
2022/06/10 13:42:29;;;;;;;3.30;2.50;;;;;25.10;101589.00;;;;4852260;29;20238;-69
2022/06/10 13:45:23;;;;;;;4.33;2.60;;;;;25.90;101590.00;;;;4850198;29;20236;-70
2022/06/10 13:48:14;;;;;;;2.97;2.47;;;;;26.50;101584.00;;;;4846622;29;20320;-70
2022/06/10 13:51:18;;;;;;;6.27;2.80;;;;;26.20;101588.00;;;;4851247;29;20243;-70
2022/06/10 13:54:10;;;;;;;3.80;2.57;;;;;25.70;101581.00;;;;4848274;29;20255;-70
2022/06/10 13:56:59;;;;;;;8.43;2.90;;;;;25.70;101572.00;;;;4850577;29;20243;-69
2022/06/10 13:59:58;;;;;;;3.20;2.10;;;;;26.00;101582.00;;;;4852259;29;20307;-71
2022/06/10 14:02:44;;;;;;;6.93;2.40;;;;;25.80;101578.00;;;;4846887;29;20246;-71
2022/06/10 14:05:32;;;;;;;6.50;2.30;;;;;26.30;101574.00;;;;4851881;29;20235;-70
2022/06/10 14:08:18;;;;;;;4.70;2.30;;;;;27.00;101573.00;;;;4851590;29;20715;-72
2022/06/10 14:11:13;;;;;;;2.70;1.95;;;;;27.30;101558.00;;;;4852440;29;20243;-71
2022/06/10 14:14:02;;;;;;;3.37;2.07;;;;;28.00;101570.00;;;;4851481;29;20235;-71
2022/06/10 14:16:59;;;;;;;5.35;2.13;;;;;28.60;101569.00;;;;4849863;29;20234;-70
2022/06/10 14:19:49;;;;;;;4.65;2.00;;;;;28.30;101575.00;;;;4854317;29;20232;-69
2022/06/10 14:22:37;;;;;;;3.50;1.90;;;;;29.30;101568.00;;;;4853619;29;20224;-69
2022/06/10 14:25:24;;;;;;;4.13;2.20;;;;;31.20;101569.00;;;;4854547;29;20241;-72